Main page
METAR-TAF:

METAR-TAF

Airports :

Turin Airport

Turin, Italy

latitude: 45-13N, longitude: 007-39E, elevation: 301 m

Current weather observation

The report was made 36 minutes ago, at 11:20 UTC
Wind 4 kt from variable directions
Temperature 25°C
Humidity 61%
Pressure 1021 hPa
Visibility 10 km or more
no clouds below 1500 m and no cumulonimbus

METAR: LIMF 191120Z VRB04KT CAVOK 25/17 Q1021

Time: 13:56 (11:56 UTC)

Forecast

The report was made 56 minutes ago, at 11:00 UTC
Forecast valid from 19 at 12 UTC to 20 at 12 UTC
Wind 5 kt from variable directions
Visibility 10 km or more
no clouds below 1500 m and no cumulonimbus

TAF: LIMF 191100Z 1912/2012 VRB05KT CAVOK

Weather observations and forecasts of more than 4000 airports (METAR and TAF reports).

The available stations are represented by yellow and red dots on the map.

Hover mouse over dot to see the name of the station.

Then click to see weather observations and forecasts.

To change the map : click on the green buttons with a black cross to zoom in, on the green button with a dash to zoom out, or on the green arrows for adjacent maps.


METAR-TAF: